sensor_id;sensor_type;location;lat;lon;timestamp;P1;durP1;ratioP1;P2;durP2;ratioP2
64667;SDS011;51077;42.716;23.344;2022-10-17T00:00:24;13.70;;;8.93;;
64667;SDS011;51077;42.716;23.344;2022-10-17T00:02:49;14.60;;;8.80;;
64667;SDS011;51077;42.716;23.344;2022-10-17T00:05:15;11.50;;;7.43;;
64667;SDS011;51077;42.716;23.344;2022-10-17T00:07:40;14.20;;;7.87;;
64667;SDS011;51077;42.716;23.344;2022-10-17T00:10:06;13.50;;;8.13;;
64667;SDS011;51077;42.716;23.344;2022-10-17T00:12:32;14.75;;;8.07;;
64667;SDS011;51077;42.716;23.344;2022-10-17T00:14:57;16.10;;;9.07;;
64667;SDS011;51077;42.716;23.344;2022-10-17T00:17:23;14.63;;;8.67;;
64667;SDS011;51077;42.716;23.344;2022-10-17T00:19:48;14.77;;;8.40;;
64667;SDS011;51077;42.716;23.344;2022-10-17T00:22:13;17.10;;;8.73;;
64667;SDS011;51077;42.716;23.344;2022-10-17T00:24:39;14.37;;;8.97;;
64667;SDS011;51077;42.716;23.344;2022-10-17T00:27:05;15.20;;;9.33;;
64667;SDS011;51077;42.716;23.344;2022-10-17T00:29:30;18.80;;;11.20;;
64667;SDS011;51077;42.716;23.344;2022-10-17T00:31:56;17.40;;;10.40;;
64667;SDS011;51077;42.716;23.344;2022-10-17T00:34:21;15.60;;;9.60;;
64667;SDS011;51077;42.716;23.344;2022-10-17T00:36:48;17.67;;;9.50;;
64667;SDS011;51077;42.716;23.344;2022-10-17T00:39:13;18.30;;;10.53;;
64667;SDS011;51077;42.716;23.344;2022-10-17T00:41:39;17.87;;;9.73;;
64667;SDS011;51077;42.716;23.344;2022-10-17T00:49:23;16.70;;;10.10;;
64667;SDS011;51077;42.716;23.344;2022-10-17T00:51:52;16.83;;;10.13;;
64667;SDS011;51077;42.716;23.344;2022-10-17T00:54:22;18.17;;;9.55;;
64667;SDS011;51077;42.716;23.344;2022-10-17T00:56:51;17.27;;;10.55;;
64667;SDS011;51077;42.716;23.344;2022-10-17T00:59:18;14.93;;;10.15;;
64667;SDS011;51077;42.716;23.344;2022-10-17T01:01:47;13.95;;;9.38;;
64667;SDS011;51077;42.716;23.344;2022-10-17T01:04:20;14.30;;;8.93;;
64667;SDS011;51077;42.716;23.344;2022-10-17T01:06:46;17.80;;;10.20;;
64667;SDS011;51077;42.716;23.344;2022-10-17T01:09:11;15.67;;;9.60;;
64667;SDS011;51077;42.716;23.344;2022-10-17T01:11:38;16.63;;;9.50;;
64667;SDS011;51077;42.716;23.344;2022-10-17T01:14:28;14.57;;;9.57;;
64667;SDS011;51077;42.716;23.344;2022-10-17T01:17:06;15.68;;;9.10;;
64667;SDS011;51077;42.716;23.344;2022-10-17T01:30:55;16.08;;;8.98;;
64667;SDS011;51077;42.716;23.344;2022-10-17T01:33:44;13.88;;;8.60;;
64667;SDS011;51077;42.716;23.344;2022-10-17T01:38:54;13.50;;;7.88;;
64667;SDS011;51077;42.716;23.344;2022-10-17T01:44:19;13.52;;;7.78;;
64667;SDS011;51077;42.716;23.344;2022-10-17T01:46:55;11.27;;;7.22;;
64667;SDS011;51077;42.716;23.344;2022-10-17T01:49:26;12.25;;;7.97;;
64667;SDS011;51077;42.716;23.344;2022-10-17T01:51:59;13.30;;;7.38;;
64667;SDS011;51077;42.716;23.344;2022-10-17T01:54:32;14.07;;;7.95;;
64667;SDS011;51077;42.716;23.344;2022-10-17T01:57:03;10.18;;;6.95;;
64667;SDS011;51077;42.716;23.344;2022-10-17T01:59:37;15.95;;;8.32;;
64667;SDS011;51077;42.716;23.344;2022-10-17T02:02:05;11.18;;;7.45;;
64667;SDS011;51077;42.716;23.344;2022-10-17T02:04:33;13.88;;;7.80;;
64667;SDS011;51077;42.716;23.344;2022-10-17T02:07:06;12.10;;;7.25;;
64667;SDS011;51077;42.716;23.344;2022-10-17T02:09:33;14.38;;;7.00;;
64667;SDS011;51077;42.716;23.344;2022-10-17T02:12:09;11.55;;;7.85;;
64667;SDS011;51077;42.716;23.344;2022-10-17T02:20:26;10.85;;;7.82;;
64667;SDS011;51077;42.716;23.344;2022-10-17T02:26:09;16.88;;;9.27;;
64667;SDS011;51077;42.716;23.344;2022-10-17T02:28:58;13.85;;;7.80;;
64667;SDS011;51077;42.716;23.344;2022-10-17T02:31:40;13.57;;;7.97;;
64667;SDS011;51077;42.716;23.344;2022-10-17T02:34:10;16.40;;;9.55;;
64667;SDS011;51077;42.716;23.344;2022-10-17T02:36:46;14.68;;;9.32;;
64667;SDS011;51077;42.716;23.344;2022-10-17T02:39:14;16.55;;;10.20;;
64667;SDS011;51077;42.716;23.344;2022-10-17T02:41:41;17.48;;;9.43;;
64667;SDS011;51077;42.716;23.344;2022-10-17T02:44:08;16.85;;;10.10;;
64667;SDS011;51077;42.716;23.344;2022-10-17T02:46:36;15.63;;;9.45;;
64667;SDS011;51077;42.716;23.344;2022-10-17T02:49:06;13.95;;;9.20;;
64667;SDS011;51077;42.716;23.344;2022-10-17T02:51:43;13.32;;;8.43;;
64667;SDS011;51077;42.716;23.344;2022-10-17T02:54:21;15.10;;;8.45;;
64667;SDS011;51077;42.716;23.344;2022-10-17T02:56:53;14.60;;;8.48;;
64667;SDS011;51077;42.716;23.344;2022-10-17T02:59:24;15.25;;;8.50;;
64667;SDS011;51077;42.716;23.344;2022-10-17T03:01:52;14.25;;;8.30;;
64667;SDS011;51077;42.716;23.344;2022-10-17T03:04:18;18.27;;;8.80;;
64667;SDS011;51077;42.716;23.344;2022-10-17T03:06:45;13.77;;;7.63;;
64667;SDS011;51077;42.716;23.344;2022-10-17T03:09:11;13.50;;;8.45;;
64667;SDS011;51077;42.716;23.344;2022-10-17T03:11:37;12.03;;;7.93;;
64667;SDS011;51077;42.716;23.344;2022-10-17T03:14:02;12.27;;;8.03;;
64667;SDS011;51077;42.716;23.344;2022-10-17T03:16:28;12.93;;;7.77;;
64667;SDS011;51077;42.716;23.344;2022-10-17T03:18:53;11.87;;;7.90;;
64667;SDS011;51077;42.716;23.344;2022-10-17T03:21:19;12.37;;;7.77;;
64667;SDS011;51077;42.716;23.344;2022-10-17T03:23:44;13.20;;;7.97;;
64667;SDS011;51077;42.716;23.344;2022-10-17T03:26:10;10.57;;;6.93;;
64667;SDS011;51077;42.716;23.344;2022-10-17T03:28:36;13.10;;;7.83;;
64667;SDS011;51077;42.716;23.344;2022-10-17T03:31:09;12.13;;;7.53;;
64667;SDS011;51077;42.716;23.344;2022-10-17T03:33:35;12.65;;;8.07;;
64667;SDS011;51077;42.716;23.344;2022-10-17T03:36:08;13.98;;;7.82;;
64667;SDS011;51077;42.716;23.344;2022-10-17T03:38:35;13.68;;;7.60;;
64667;SDS011;51077;42.716;23.344;2022-10-17T03:41:01;10.93;;;7.53;;
64667;SDS011;51077;42.716;23.344;2022-10-17T03:43:28;12.93;;;7.53;;
64667;SDS011;51077;42.716;23.344;2022-10-17T03:45:53;15.47;;;7.90;;
64667;SDS011;51077;42.716;23.344;2022-10-17T03:48:19;15.07;;;8.37;;
64667;SDS011;51077;42.716;23.344;2022-10-17T03:50:44;13.00;;;8.07;;
64667;SDS011;51077;42.716;23.344;2022-10-17T03:53:10;12.53;;;7.03;;
64667;SDS011;51077;42.716;23.344;2022-10-17T03:55:36;13.48;;;7.25;;
64667;SDS011;51077;42.716;23.344;2022-10-17T03:58:01;13.23;;;8.80;;
64667;SDS011;51077;42.716;23.344;2022-10-17T04:00:26;13.77;;;8.20;;
64667;SDS011;51077;42.716;23.344;2022-10-17T04:02:52;12.93;;;8.53;;
64667;SDS011;51077;42.716;23.344;2022-10-17T04:05:17;13.10;;;7.90;;
64667;SDS011;51077;42.716;23.344;2022-10-17T04:07:43;13.30;;;7.70;;
64667;SDS011;51077;42.716;23.344;2022-10-17T04:10:08;14.07;;;7.93;;
64667;SDS011;51077;42.716;23.344;2022-10-17T04:12:34;16.90;;;9.18;;
64667;SDS011;51077;42.716;23.344;2022-10-17T04:15:00;15.73;;;8.77;;
64667;SDS011;51077;42.716;23.344;2022-10-17T04:17:25;15.70;;;9.33;;
64667;SDS011;51077;42.716;23.344;2022-10-17T04:19:51;15.63;;;8.83;;
64667;SDS011;51077;42.716;23.344;2022-10-17T04:22:16;15.90;;;9.03;;
64667;SDS011;51077;42.716;23.344;2022-10-17T04:24:42;13.13;;;8.10;;
64667;SDS011;51077;42.716;23.344;2022-10-17T04:27:08;13.88;;;8.60;;
64667;SDS011;51077;42.716;23.344;2022-10-17T04:29:34;13.97;;;8.93;;
64667;SDS011;51077;42.716;23.344;2022-10-17T04:31:59;16.50;;;9.27;;
64667;SDS011;51077;42.716;23.344;2022-10-17T04:34:25;18.57;;;9.57;;
64667;SDS011;51077;42.716;23.344;2022-10-17T04:36:50;15.40;;;8.77;;
64667;SDS011;51077;42.716;23.344;2022-10-17T04:39:16;16.37;;;8.70;;
64667;SDS011;51077;42.716;23.344;2022-10-17T04:41:41;13.63;;;8.83;;
64667;SDS011;51077;42.716;23.344;2022-10-17T04:44:07;14.47;;;8.53;;
64667;SDS011;51077;42.716;23.344;2022-10-17T04:46:32;16.87;;;8.67;;
64667;SDS011;51077;42.716;23.344;2022-10-17T04:48:58;13.43;;;8.10;;
64667;SDS011;51077;42.716;23.344;2022-10-17T04:51:23;14.53;;;9.47;;
64667;SDS011;51077;42.716;23.344;2022-10-17T04:53:49;12.53;;;8.67;;
64667;SDS011;51077;42.716;23.344;2022-10-17T04:56:18;16.73;;;9.20;;
64667;SDS011;51077;42.716;23.344;2022-10-17T04:58:45;15.63;;;9.13;;
64667;SDS011;51077;42.716;23.344;2022-10-17T05:01:12;16.17;;;9.50;;
64667;SDS011;51077;42.716;23.344;2022-10-17T05:03:40;13.10;;;8.38;;
64667;SDS011;51077;42.716;23.344;2022-10-17T05:06:07;20.00;;;8.90;;
64667;SDS011;51077;42.716;23.344;2022-10-17T05:08:34;15.27;;;8.73;;
64667;SDS011;51077;42.716;23.344;2022-10-17T05:11:00;16.87;;;9.60;;
64667;SDS011;51077;42.716;23.344;2022-10-17T05:13:26;14.07;;;9.32;;
64667;SDS011;51077;42.716;23.344;2022-10-17T05:15:51;19.63;;;10.37;;
64667;SDS011;51077;42.716;23.344;2022-10-17T05:18:17;16.07;;;9.17;;
64667;SDS011;51077;42.716;23.344;2022-10-17T05:20:42;21.00;;;9.47;;
64667;SDS011;51077;42.716;23.344;2022-10-17T05:23:08;14.07;;;10.00;;
64667;SDS011;51077;42.716;23.344;2022-10-17T05:25:33;16.43;;;8.80;;
64667;SDS011;51077;42.716;23.344;2022-10-17T05:27:58;15.77;;;8.70;;
64667;SDS011;51077;42.716;23.344;2022-10-17T05:30:24;13.57;;;8.97;;
64667;SDS011;51077;42.716;23.344;2022-10-17T05:32:53;17.87;;;8.83;;
64667;SDS011;51077;42.716;23.344;2022-10-17T05:35:19;19.30;;;9.23;;
64667;SDS011;51077;42.716;23.344;2022-10-17T05:37:45;15.48;;;9.35;;
64667;SDS011;51077;42.716;23.344;2022-10-17T05:40:10;19.77;;;9.13;;
64667;SDS011;51077;42.716;23.344;2022-10-17T05:42:36;13.93;;;8.57;;
64667;SDS011;51077;42.716;23.344;2022-10-17T05:45:01;17.87;;;8.53;;
64667;SDS011;51077;42.716;23.344;2022-10-17T05:47:27;11.30;;;8.45;;
64667;SDS011;51077;42.716;23.344;2022-10-17T05:49:53;13.67;;;8.37;;
64667;SDS011;51077;42.716;23.344;2022-10-17T05:52:18;17.70;;;9.40;;
64667;SDS011;51077;42.716;23.344;2022-10-17T05:54:43;17.50;;;10.13;;
64667;SDS011;51077;42.716;23.344;2022-10-17T05:57:09;16.83;;;9.33;;
64667;SDS011;51077;42.716;23.344;2022-10-17T05:59:34;17.60;;;10.03;;
64667;SDS011;51077;42.716;23.344;2022-10-17T06:01:59;21.43;;;9.57;;
64667;SDS011;51077;42.716;23.344;2022-10-17T06:04:25;14.23;;;9.13;;
64667;SDS011;51077;42.716;23.344;2022-10-17T06:06:51;15.63;;;9.23;;
64667;SDS011;51077;42.716;23.344;2022-10-17T06:09:17;15.85;;;8.65;;
64667;SDS011;51077;42.716;23.344;2022-10-17T06:11:43;14.87;;;7.60;;
64667;SDS011;51077;42.716;23.344;2022-10-17T06:14:08;14.90;;;8.30;;
64667;SDS011;51077;42.716;23.344;2022-10-17T06:16:34;13.40;;;7.03;;
64667;SDS011;51077;42.716;23.344;2022-10-17T06:18:59;13.70;;;8.10;;
64667;SDS011;51077;42.716;23.344;2022-10-17T06:21:25;12.53;;;7.33;;
64667;SDS011;51077;42.716;23.344;2022-10-17T06:23:52;15.80;;;8.73;;
64667;SDS011;51077;42.716;23.344;2022-10-17T06:26:17;15.55;;;7.85;;
64667;SDS011;51077;42.716;23.344;2022-10-17T06:28:43;12.30;;;7.22;;
64667;SDS011;51077;42.716;23.344;2022-10-17T06:31:13;13.50;;;7.77;;
64667;SDS011;51077;42.716;23.344;2022-10-17T06:33:40;13.82;;;6.78;;
64667;SDS011;51077;42.716;23.344;2022-10-17T06:36:06;12.85;;;7.43;;
64667;SDS011;51077;42.716;23.344;2022-10-17T06:38:35;13.25;;;7.43;;
64667;SDS011;51077;42.716;23.344;2022-10-17T06:41:02;15.70;;;7.50;;
64667;SDS011;51077;42.716;23.344;2022-10-17T06:43:37;13.82;;;8.38;;
64667;SDS011;51077;42.716;23.344;2022-10-17T06:46:03;15.85;;;7.70;;
64667;SDS011;51077;42.716;23.344;2022-10-17T06:48:29;13.02;;;7.95;;
64667;SDS011;51077;42.716;23.344;2022-10-17T06:50:58;11.73;;;8.10;;
64667;SDS011;51077;42.716;23.344;2022-10-17T06:53:28;12.13;;;8.38;;
64667;SDS011;51077;42.716;23.344;2022-10-17T06:55:55;14.30;;;7.75;;
64667;SDS011;51077;42.716;23.344;2022-10-17T06:58:30;11.45;;;7.15;;
64667;SDS011;51077;42.716;23.344;2022-10-17T07:00:59;15.55;;;7.85;;
64667;SDS011;51077;42.716;23.344;2022-10-17T07:03:25;11.90;;;7.70;;
64667;SDS011;51077;42.716;23.344;2022-10-17T07:05:51;12.73;;;7.13;;
64667;SDS011;51077;42.716;23.344;2022-10-17T07:08:18;14.68;;;7.32;;
64667;SDS011;51077;42.716;23.344;2022-10-17T07:10:43;11.10;;;7.67;;
64667;SDS011;51077;42.716;23.344;2022-10-17T07:13:09;16.50;;;7.77;;
64667;SDS011;51077;42.716;23.344;2022-10-17T07:15:35;18.90;;;8.13;;
64667;SDS011;51077;42.716;23.344;2022-10-17T07:18:01;10.90;;;7.75;;
64667;SDS011;51077;42.716;23.344;2022-10-17T07:20:26;14.53;;;7.57;;
64667;SDS011;51077;42.716;23.344;2022-10-17T07:22:51;17.73;;;8.17;;
64667;SDS011;51077;42.716;23.344;2022-10-17T07:25:17;17.63;;;8.20;;
64667;SDS011;51077;42.716;23.344;2022-10-17T07:27:42;17.07;;;7.93;;
64667;SDS011;51077;42.716;23.344;2022-10-17T07:30:08;13.30;;;7.70;;
64667;SDS011;51077;42.716;23.344;2022-10-17T07:32:34;14.57;;;7.78;;
64667;SDS011;51077;42.716;23.344;2022-10-17T07:34:59;13.17;;;7.97;;
64667;SDS011;51077;42.716;23.344;2022-10-17T07:37:25;18.23;;;8.20;;
64667;SDS011;51077;42.716;23.344;2022-10-17T07:39:50;12.10;;;7.97;;
64667;SDS011;51077;42.716;23.344;2022-10-17T07:42:15;16.63;;;8.20;;
64667;SDS011;51077;42.716;23.344;2022-10-17T07:44:41;14.73;;;8.43;;
64667;SDS011;51077;42.716;23.344;2022-10-17T07:47:06;11.57;;;8.07;;
64667;SDS011;51077;42.716;23.344;2022-10-17T07:49:32;16.10;;;8.60;;
64667;SDS011;51077;42.716;23.344;2022-10-17T07:51:57;16.47;;;8.37;;
64667;SDS011;51077;42.716;23.344;2022-10-17T07:54:22;16.27;;;9.07;;
64667;SDS011;51077;42.716;23.344;2022-10-17T07:56:48;17.40;;;8.10;;
64667;SDS011;51077;42.716;23.344;2022-10-17T07:59:15;13.65;;;8.40;;
64667;SDS011;51077;42.716;23.344;2022-10-17T08:01:41;13.63;;;7.78;;
64667;SDS011;51077;42.716;23.344;2022-10-17T08:04:07;10.83;;;8.10;;
64667;SDS011;51077;42.716;23.344;2022-10-17T08:06:32;19.07;;;8.90;;
64667;SDS011;51077;42.716;23.344;2022-10-17T08:08:58;14.50;;;8.33;;
64667;SDS011;51077;42.716;23.344;2022-10-17T08:11:25;11.95;;;7.60;;
64667;SDS011;51077;42.716;23.344;2022-10-17T08:13:51;12.53;;;7.37;;
64667;SDS011;51077;42.716;23.344;2022-10-17T08:16:16;17.77;;;8.63;;
64667;SDS011;51077;42.716;23.344;2022-10-17T08:18:42;13.10;;;8.10;;
64667;SDS011;51077;42.716;23.344;2022-10-17T08:21:08;15.30;;;7.68;;
64667;SDS011;51077;42.716;23.344;2022-10-17T08:23:34;10.13;;;7.60;;
64667;SDS011;51077;42.716;23.344;2022-10-17T08:26:01;12.98;;;8.07;;
64667;SDS011;51077;42.716;23.344;2022-10-17T08:28:28;13.40;;;7.47;;
64667;SDS011;51077;42.716;23.344;2022-10-17T08:31:00;13.93;;;7.70;;
64667;SDS011;51077;42.716;23.344;2022-10-17T08:33:30;12.98;;;7.90;;
64667;SDS011;51077;42.716;23.344;2022-10-17T08:35:57;14.00;;;7.70;;
64667;SDS011;51077;42.716;23.344;2022-10-17T08:38:25;12.95;;;7.00;;
64667;SDS011;51077;42.716;23.344;2022-10-17T08:40:52;11.32;;;7.10;;
64667;SDS011;51077;42.716;23.344;2022-10-17T08:43:23;11.32;;;7.70;;
64667;SDS011;51077;42.716;23.344;2022-10-17T08:45:59;9.00;;;6.55;;
64667;SDS011;51077;42.716;23.344;2022-10-17T08:48:28;12.02;;;7.28;;
64667;SDS011;51077;42.716;23.344;2022-10-17T08:51:12;11.52;;;6.32;;
64667;SDS011;51077;42.716;23.344;2022-10-17T08:53:47;10.45;;;6.70;;
64667;SDS011;51077;42.716;23.344;2022-10-17T08:56:20;13.85;;;7.13;;
64667;SDS011;51077;42.716;23.344;2022-10-17T08:58:49;15.75;;;8.02;;
64667;SDS011;51077;42.716;23.344;2022-10-17T09:06:58;11.35;;;8.23;;
64667;SDS011;51077;42.716;23.344;2022-10-17T09:12:23;11.60;;;7.55;;
64667;SDS011;51077;42.716;23.344;2022-10-17T09:15:09;12.48;;;7.75;;
64667;SDS011;51077;42.716;23.344;2022-10-17T09:17:55;10.52;;;6.43;;
64667;SDS011;51077;42.716;23.344;2022-10-17T09:20:25;14.98;;;6.95;;
64667;SDS011;51077;42.716;23.344;2022-10-17T09:22:54;11.40;;;6.63;;
64667;SDS011;51077;42.716;23.344;2022-10-17T09:25:24;12.52;;;7.10;;
64667;SDS011;51077;42.716;23.344;2022-10-17T09:28:05;13.10;;;6.32;;
64667;SDS011;51077;42.716;23.344;2022-10-17T09:30:42;11.15;;;6.10;;
64667;SDS011;51077;42.716;23.344;2022-10-17T09:33:31;11.85;;;5.88;;
64667;SDS011;51077;42.716;23.344;2022-10-17T09:36:03;16.88;;;7.10;;
64667;SDS011;51077;42.716;23.344;2022-10-17T09:38:40;10.18;;;5.35;;
64667;SDS011;51077;42.716;23.344;2022-10-17T09:41:12;10.18;;;5.85;;
64667;SDS011;51077;42.716;23.344;2022-10-17T09:43:42;9.25;;;4.50;;
64667;SDS011;51077;42.716;23.344;2022-10-17T09:46:10;9.33;;;4.67;;
64667;SDS011;51077;42.716;23.344;2022-10-17T09:48:44;6.90;;;4.15;;
64667;SDS011;51077;42.716;23.344;2022-10-17T09:51:17;6.88;;;4.10;;
64667;SDS011;51077;42.716;23.344;2022-10-17T09:54:02;5.50;;;3.90;;
64667;SDS011;51077;42.716;23.344;2022-10-17T09:56:42;6.90;;;3.97;;
64667;SDS011;51077;42.716;23.344;2022-10-17T09:59:29;7.47;;;4.40;;
64667;SDS011;51077;42.716;23.344;2022-10-17T10:02:06;6.60;;;4.00;;
64667;SDS011;51077;42.716;23.344;2022-10-17T10:07:23;6.43;;;3.80;;
64667;SDS011;51077;42.716;23.344;2022-10-17T10:09:50;5.77;;;3.50;;
64667;SDS011;51077;42.716;23.344;2022-10-17T10:12:22;5.47;;;3.30;;
64667;SDS011;51077;42.716;23.344;2022-10-17T10:14:51;6.30;;;2.70;;
64667;SDS011;51077;42.716;23.344;2022-10-17T10:17:37;4.97;;;3.07;;
64667;SDS011;51077;42.716;23.344;2022-10-17T10:23:11;7.93;;;2.60;;
64667;SDS011;51077;42.716;23.344;2022-10-17T10:25:49;3.23;;;2.00;;
64667;SDS011;51077;42.716;23.344;2022-10-17T10:28:18;4.38;;;2.60;;
64667;SDS011;51077;42.716;23.344;2022-10-17T10:30:48;4.90;;;2.70;;
64667;SDS011;51077;42.716;23.344;2022-10-17T10:33:17;6.10;;;3.10;;
64667;SDS011;51077;42.716;23.344;2022-10-17T10:35:56;5.13;;;2.53;;
64667;SDS011;51077;42.716;23.344;2022-10-17T10:38:28;7.28;;;3.00;;
64667;SDS011;51077;42.716;23.344;2022-10-17T10:40:55;4.07;;;2.50;;
64667;SDS011;51077;42.716;23.344;2022-10-17T10:46:22;4.10;;;2.33;;
64667;SDS011;51077;42.716;23.344;2022-10-17T10:48:51;4.68;;;2.13;;
64667;SDS011;51077;42.716;23.344;2022-10-17T10:51:35;5.32;;;2.63;;
64667;SDS011;51077;42.716;23.344;2022-10-17T10:59:19;5.45;;;2.70;;
64667;SDS011;51077;42.716;23.344;2022-10-17T11:04:50;7.97;;;2.40;;
64667;SDS011;51077;42.716;23.344;2022-10-17T11:07:26;5.38;;;2.70;;
64667;SDS011;51077;42.716;23.344;2022-10-17T11:10:07;3.80;;;2.00;;
64667;SDS011;51077;42.716;23.344;2022-10-17T11:12:43;3.40;;;2.38;;
64667;SDS011;51077;42.716;23.344;2022-10-17T11:17:59;4.77;;;2.50;;
64667;SDS011;51077;42.716;23.344;2022-10-17T11:22:54;7.67;;;1.73;;
64667;SDS011;51077;42.716;23.344;2022-10-17T11:27:59;3.65;;;1.95;;
64667;SDS011;51077;42.716;23.344;2022-10-17T11:30:27;4.60;;;1.90;;
64667;SDS011;51077;42.716;23.344;2022-10-17T11:32:59;4.28;;;2.00;;
64667;SDS011;51077;42.716;23.344;2022-10-17T11:35:29;3.22;;;1.98;;
64667;SDS011;51077;42.716;23.344;2022-10-17T11:40:39;3.88;;;1.95;;
64667;SDS011;51077;42.716;23.344;2022-10-17T11:45:41;3.10;;;1.63;;
64667;SDS011;51077;42.716;23.344;2022-10-17T11:48:16;7.90;;;2.15;;
64667;SDS011;51077;42.716;23.344;2022-10-17T11:50:47;5.38;;;2.33;;
64667;SDS011;51077;42.716;23.344;2022-10-17T11:53:19;4.57;;;2.28;;
64667;SDS011;51077;42.716;23.344;2022-10-17T11:55:47;3.50;;;2.10;;
64667;SDS011;51077;42.716;23.344;2022-10-17T12:06:42;3.83;;;2.23;;
64667;SDS011;51077;42.716;23.344;2022-10-17T12:17:02;3.92;;;2.05;;
64667;SDS011;51077;42.716;23.344;2022-10-17T12:19:30;5.60;;;1.70;;
64667;SDS011;51077;42.716;23.344;2022-10-17T12:22:02;3.77;;;2.07;;
64667;SDS011;51077;42.716;23.344;2022-10-17T12:24:40;4.30;;;1.90;;
64667;SDS011;51077;42.716;23.344;2022-10-17T12:30:25;3.10;;;1.80;;
64667;SDS011;51077;42.716;23.344;2022-10-17T12:32:56;3.60;;;1.80;;
64667;SDS011;51077;42.716;23.344;2022-10-17T12:35:25;4.97;;;2.10;;
64667;SDS011;51077;42.716;23.344;2022-10-17T12:43:01;3.63;;;1.80;;
64667;SDS011;51077;42.716;23.344;2022-10-17T12:51:06;4.70;;;2.00;;
64667;SDS011;51077;42.716;23.344;2022-10-17T12:56:15;4.30;;;2.33;;
64667;SDS011;51077;42.716;23.344;2022-10-17T12:58:44;5.50;;;2.33;;
64667;SDS011;51077;42.716;23.344;2022-10-17T13:01:14;3.37;;;2.00;;
64667;SDS011;51077;42.716;23.344;2022-10-17T13:03:43;5.60;;;2.50;;
64667;SDS011;51077;42.716;23.344;2022-10-17T13:06:18;6.33;;;2.47;;
64667;SDS011;51077;42.716;23.344;2022-10-17T13:08:48;4.23;;;2.00;;
64667;SDS011;51077;42.716;23.344;2022-10-17T13:11:22;3.43;;;1.83;;
64667;SDS011;51077;42.716;23.344;2022-10-17T13:13:52;4.13;;;1.80;;
64667;SDS011;51077;42.716;23.344;2022-10-17T13:16:33;4.00;;;2.10;;
64667;SDS011;51077;42.716;23.344;2022-10-17T13:19:01;6.50;;;3.07;;
64667;SDS011;51077;42.716;23.344;2022-10-17T13:21:28;4.63;;;2.20;;
64667;SDS011;51077;42.716;23.344;2022-10-17T13:23:54;4.20;;;2.17;;
64667;SDS011;51077;42.716;23.344;2022-10-17T13:26:24;4.77;;;2.00;;
64667;SDS011;51077;42.716;23.344;2022-10-17T13:31:37;5.28;;;2.10;;
64667;SDS011;51077;42.716;23.344;2022-10-17T13:34:05;4.03;;;2.38;;
64667;SDS011;51077;42.716;23.344;2022-10-17T13:36:39;4.53;;;2.20;;
64667;SDS011;51077;42.716;23.344;2022-10-17T13:39:07;6.15;;;2.35;;
64667;SDS011;51077;42.716;23.344;2022-10-17T13:41:37;5.47;;;2.63;;
64667;SDS011;51077;42.716;23.344;2022-10-17T13:44:08;3.85;;;2.35;;
64667;SDS011;51077;42.716;23.344;2022-10-17T13:46:38;3.10;;;2.17;;
64667;SDS011;51077;42.716;23.344;2022-10-17T13:49:08;7.65;;;2.40;;
64667;SDS011;51077;42.716;23.344;2022-10-17T13:51:46;9.13;;;3.00;;
64667;SDS011;51077;42.716;23.344;2022-10-17T13:56:57;7.32;;;2.20;;
64667;SDS011;51077;42.716;23.344;2022-10-17T13:59:26;6.25;;;2.28;;
64667;SDS011;51077;42.716;23.344;2022-10-17T14:01:58;7.82;;;2.72;;
64667;SDS011;51077;42.716;23.344;2022-10-17T14:04:26;4.30;;;2.15;;
64667;SDS011;51077;42.716;23.344;2022-10-17T14:06:51;8.17;;;2.47;;
64667;SDS011;51077;42.716;23.344;2022-10-17T14:09:20;4.97;;;2.60;;
64667;SDS011;51077;42.716;23.344;2022-10-17T14:11:55;10.38;;;4.05;;
64667;SDS011;51077;42.716;23.344;2022-10-17T14:14:23;13.45;;;3.95;;
64667;SDS011;51077;42.716;23.344;2022-10-17T14:16:50;9.18;;;4.10;;
64667;SDS011;51077;42.716;23.344;2022-10-17T14:19:22;10.27;;;4.22;;
64667;SDS011;51077;42.716;23.344;2022-10-17T14:22:15;7.93;;;4.13;;
64667;SDS011;51077;42.716;23.344;2022-10-17T14:24:50;17.08;;;7.95;;
64667;SDS011;51077;42.716;23.344;2022-10-17T14:27:28;17.85;;;8.98;;
64667;SDS011;51077;42.716;23.344;2022-10-17T14:29:54;16.13;;;8.95;;
64667;SDS011;51077;42.716;23.344;2022-10-17T14:32:25;12.23;;;7.32;;
64667;SDS011;51077;42.716;23.344;2022-10-17T14:34:53;11.88;;;7.03;;
64667;SDS011;51077;42.716;23.344;2022-10-17T14:42:20;15.97;;;7.77;;
64667;SDS011;51077;42.716;23.344;2022-10-17T14:44:50;18.48;;;8.45;;
64667;SDS011;51077;42.716;23.344;2022-10-17T14:47:19;19.55;;;9.02;;
64667;SDS011;51077;42.716;23.344;2022-10-17T14:49:50;18.20;;;8.02;;
64667;SDS011;51077;42.716;23.344;2022-10-17T14:52:27;15.15;;;6.95;;
64667;SDS011;51077;42.716;23.344;2022-10-17T14:54:54;12.10;;;6.28;;
64667;SDS011;51077;42.716;23.344;2022-10-17T14:59:50;13.63;;;6.10;;
64667;SDS011;51077;42.716;23.344;2022-10-17T15:02:15;13.57;;;7.03;;
64667;SDS011;51077;42.716;23.344;2022-10-17T15:04:41;14.97;;;7.23;;
64667;SDS011;51077;42.716;23.344;2022-10-17T15:07:08;17.63;;;8.70;;
64667;SDS011;51077;42.716;23.344;2022-10-17T15:09:46;15.40;;;7.20;;
64667;SDS011;51077;42.716;23.344;2022-10-17T15:12:16;13.23;;;6.22;;
64667;SDS011;51077;42.716;23.344;2022-10-17T15:14:43;13.77;;;6.40;;
64667;SDS011;51077;42.716;23.344;2022-10-17T15:17:13;10.37;;;5.37;;
64667;SDS011;51077;42.716;23.344;2022-10-17T15:19:41;14.77;;;5.65;;
64667;SDS011;51077;42.716;23.344;2022-10-17T15:22:06;11.17;;;5.50;;
64667;SDS011;51077;42.716;23.344;2022-10-17T15:24:31;7.97;;;5.17;;
64667;SDS011;51077;42.716;23.344;2022-10-17T15:26:57;9.03;;;4.90;;
64667;SDS011;51077;42.716;23.344;2022-10-17T15:29:22;9.37;;;4.60;;
64667;SDS011;51077;42.716;23.344;2022-10-17T15:31:48;7.57;;;4.53;;
64667;SDS011;51077;42.716;23.344;2022-10-17T15:34:13;7.00;;;4.63;;
64667;SDS011;51077;42.716;23.344;2022-10-17T15:36:39;7.90;;;4.10;;
64667;SDS011;51077;42.716;23.344;2022-10-17T15:39:06;9.73;;;4.20;;
64667;SDS011;51077;42.716;23.344;2022-10-17T15:41:32;7.68;;;4.30;;
64667;SDS011;51077;42.716;23.344;2022-10-17T15:43:57;12.33;;;4.73;;
64667;SDS011;51077;42.716;23.344;2022-10-17T15:46:27;9.95;;;4.72;;
64667;SDS011;51077;42.716;23.344;2022-10-17T15:48:55;9.18;;;4.53;;
64667;SDS011;51077;42.716;23.344;2022-10-17T15:51:21;11.68;;;4.57;;
64667;SDS011;51077;42.716;23.344;2022-10-17T15:53:47;8.65;;;4.13;;
64667;SDS011;51077;42.716;23.344;2022-10-17T15:56:17;8.57;;;4.20;;
64667;SDS011;51077;42.716;23.344;2022-10-17T15:58:43;8.10;;;3.95;;
64667;SDS011;51077;42.716;23.344;2022-10-17T16:01:10;8.33;;;4.17;;
64667;SDS011;51077;42.716;23.344;2022-10-17T16:03:44;7.78;;;4.18;;
64667;SDS011;51077;42.716;23.344;2022-10-17T16:06:11;7.43;;;3.97;;
64667;SDS011;51077;42.716;23.344;2022-10-17T16:08:36;14.53;;;5.47;;
64667;SDS011;51077;42.716;23.344;2022-10-17T16:11:02;6.75;;;4.22;;
64667;SDS011;51077;42.716;23.344;2022-10-17T16:13:28;6.33;;;4.27;;
64667;SDS011;51077;42.716;23.344;2022-10-17T16:15:53;10.43;;;5.17;;
64667;SDS011;51077;42.716;23.344;2022-10-17T16:18:19;11.87;;;5.07;;
64667;SDS011;51077;42.716;23.344;2022-10-17T16:20:45;11.43;;;5.60;;
64667;SDS011;51077;42.716;23.344;2022-10-17T16:23:11;9.32;;;5.15;;
64667;SDS011;51077;42.716;23.344;2022-10-17T16:25:37;9.82;;;5.07;;
64667;SDS011;51077;42.716;23.344;2022-10-17T16:28:04;9.02;;;4.80;;
64667;SDS011;51077;42.716;23.344;2022-10-17T16:30:32;9.70;;;5.78;;